Time;durP1;ratioP1;P1;durP2;ratioP2;P2;SDS_P1;SDS_P2;PMS_P1;PMS_P2;Temp;Humidity;BMP_temperature;BMP_pressure;BME280_temperature;BME280_humidity;BME280_pressure;Samples;Min_cycle;Max_cycle;Signal;HPM_P1;HPM_P2
2022/10/12 00:01:41;;;;;;;14.50;6.57;;;;;;;3.57;80.62;101661.64;1716864;83;21023;-74
2022/10/12 00:04:08;;;;;;;15.33;6.83;;;;;;;3.56;80.71;101663.80;1716602;83;21020;-75
2022/10/12 00:06:35;;;;;;;11.53;6.20;;;;;;;3.56;80.79;101667.27;1716711;83;21086;-75
2022/10/12 00:09:02;;;;;;;10.50;6.10;;;;;;;3.55;80.70;101668.56;1716849;83;21057;-75
2022/10/12 00:11:30;;;;;;;12.10;6.40;;;;;;;3.51;80.58;101662.88;1716578;83;21042;-74
2022/10/12 00:13:58;;;;;;;10.50;6.67;;;;;;;3.48;80.63;101661.55;1717031;83;21012;-75
2022/10/12 00:16:30;;;;;;;10.50;6.57;;;;;;;3.45;80.56;101659.78;1716764;83;21270;-74
2022/10/12 00:18:58;;;;;;;11.05;6.67;;;;;;;3.42;80.57;101658.88;1686531;84;21134;-75
2022/10/12 00:21:27;;;;;;;11.18;6.72;;;;;;;3.44;80.99;101663.67;1716781;83;21003;-75
2022/10/12 00:24:00;;;;;;;13.87;7.07;;;;;;;3.43;80.87;101658.02;1714738;83;21005;-74
2022/10/12 00:26:29;;;;;;;15.63;6.97;;;;;;;3.40;80.80;101656.26;1709582;84;21007;-74
2022/10/12 00:29:00;;;;;;;15.43;7.80;;;;;;;3.38;80.72;101658.38;1709731;84;21591;-75
2022/10/12 00:31:29;;;;;;;13.93;7.53;;;;;;;3.35;80.75;101661.80;1695935;84;22037;-75
2022/10/12 00:34:00;;;;;;;15.43;7.70;;;;;;;3.31;80.70;101658.31;1709516;84;21515;-75
2022/10/12 00:36:31;;;;;;;13.67;7.33;;;;;;;3.29;80.79;101662.59;1709657;84;20999;-74
2022/10/12 00:38:59;;;;;;;15.23;8.47;;;;;;;3.30;80.98;101663.50;1709610;84;21490;-75
2022/10/12 00:41:32;;;;;;;11.77;7.53;;;;;;;3.27;80.90;101666.91;1709615;83;21347;-74
2022/10/12 00:43:59;;;;;;;13.67;7.10;;;;;;;3.24;80.96;101662.98;1695946;84;21118;-75
2022/10/12 00:46:42;;;;;;;14.60;7.90;;;;;;;3.23;81.01;101662.52;1709638;84;21027;-75
2022/10/12 00:49:20;;;;;;;14.57;7.33;;;;;;;3.23;81.25;101669.00;1695981;84;21481;-74
2022/10/12 00:51:52;;;;;;;15.63;8.40;;;;;;;3.23;81.24;101663.81;1709682;84;21035;-75
2022/10/12 00:54:27;;;;;;;13.53;7.43;;;;;;;3.22;81.18;101665.98;1695100;84;21052;-74
2022/10/12 00:56:56;;;;;;;15.37;7.37;;;;;;;3.21;81.31;101671.98;1709777;84;21186;-74
2022/10/12 00:59:35;;;;;;;13.37;7.77;;;;;;;3.22;81.57;101672.45;1709785;84;21001;-74
2022/10/12 01:02:02;;;;;;;13.87;7.53;;;;;;;3.25;81.58;101669.91;1695645;84;21035;-74
2022/10/12 01:04:32;;;;;;;14.40;7.50;;;;;;;3.22;81.32;101667.70;1709921;83;21039;-75
2022/10/12 01:07:00;;;;;;;11.57;7.10;;;;;;;3.17;81.18;101667.63;1709652;84;21031;-75
2022/10/12 01:09:28;;;;;;;16.90;7.20;;;;;;;3.14;81.11;101674.06;1709960;84;21100;-75
2022/10/12 01:11:57;;;;;;;12.60;7.30;;;;;;;3.11;81.16;101675.33;1676311;84;21011;-75
2022/10/12 01:14:25;;;;;;;14.03;7.17;;;;;;;3.10;81.29;101673.56;1709893;84;21023;-75
2022/10/12 01:17:20;;;;;;;14.10;8.17;;;;;;;3.08;81.19;101662.33;1709521;84;21554;-75
2022/10/12 01:20:15;;;;;;;15.23;7.73;;;;;;;3.06;81.31;101670.06;1709948;83;21000;-75
2022/10/12 01:23:03;;;;;;;15.07;8.07;;;;;;;3.04;81.32;101668.30;1709600;83;21142;-75
2022/10/12 01:25:56;;;;;;;15.40;7.77;;;;;;;3.03;81.75;101667.87;1688000;84;21080;-75
2022/10/12 01:28:48;;;;;;;15.27;7.57;;;;;;;3.06;81.74;101668.77;1668014;86;21035;-75
2022/10/12 01:31:30;;;;;;;18.77;8.23;;;;;;;3.05;81.73;101669.63;1697842;84;21427;-75
2022/10/12 01:34:14;;;;;;;15.73;7.43;;;;;;;3.04;81.58;101664.41;1697009;84;21520;-74
2022/10/12 01:36:54;;;;;;;12.00;6.57;;;;;;;3.01;81.51;101667.83;1697052;84;21132;-75
2022/10/12 01:39:25;;;;;;;;;;;;;;;2.96;81.43;101669.48;1698539;84;21536;-74
2022/10/12 01:41:59;;;;;;;9.73;5.80;;;;;;;2.94;81.41;101670.30;1691017;84;20178;-74
2022/10/12 01:44:28;;;;;;;13.30;7.27;;;;;;;2.89;81.42;101671.55;1691479;84;21510;-74
2022/10/12 01:46:56;;;;;;;14.73;6.50;;;;;;;2.89;81.45;101675.44;1697426;84;20979;-75
2022/10/12 01:49:29;;;;;;;11.47;5.97;;;;;;;2.87;81.36;101670.65;1697500;84;21245;-74
2022/10/12 01:52:07;;;;;;;10.77;6.37;;;;;;;2.82;81.17;101674.45;1697658;84;22031;-74
2022/10/12 01:54:54;;;;;;;12.20;6.37;;;;;;;2.79;81.22;101678.30;1696678;84;21033;-74
2022/10/12 01:57:36;;;;;;;11.97;6.67;;;;;;;2.77;81.34;101673.54;1697796;84;21468;-74
2022/10/12 02:00:14;;;;;;;12.23;6.07;;;;;;;2.76;81.37;101671.78;1690818;84;21020;-75
2022/10/12 02:03:07;;;;;;;12.57;6.73;;;;;;;2.75;81.47;101670.48;1675416;84;21950;-74
2022/10/12 02:05:48;;;;;;;12.90;5.93;;;;;;;2.77;81.74;101672.24;1647332;86;21018;-75
2022/10/12 02:08:35;;;;;;;11.80;6.83;;;;;;;2.81;82.12;101665.39;1669950;85;21523;-74
2022/10/12 02:11:16;;;;;;;10.50;6.17;;;;;;;2.84;82.10;101666.72;1669646;85;21038;-75
2022/10/12 02:13:54;;;;;;;14.03;6.27;;;;;;;2.85;81.99;101669.31;1669941;86;21003;-74
2022/10/12 02:16:29;;;;;;;12.63;6.90;;;;;;;2.83;81.91;101671.03;1669325;85;21141;-75
2022/10/12 02:18:59;;;;;;;13.50;7.30;;;;;;;2.83;81.82;101672.77;1669452;85;20990;-75
2022/10/12 02:21:32;;;;;;;11.97;6.57;;;;;;;2.78;81.68;101668.80;1669675;86;21006;-75
2022/10/12 02:24:03;;;;;;;10.60;7.03;;;;;;;2.75;81.65;101677.81;1670574;84;21026;-75
2022/10/12 02:26:33;;;;;;;13.43;7.37;;;;;;;2.72;81.80;101674.31;1680133;84;21667;-74
2022/10/12 02:29:03;;;;;;;;;;;;;;;2.69;81.56;101672.55;1678690;84;21129;-75
2022/10/12 02:31:43;;;;;;;12.70;6.90;;;;;;;2.64;81.78;101667.29;1692390;84;20178;-74
2022/10/12 02:34:16;;;;;;;16.37;6.87;;;;;;;2.61;81.79;101667.67;1692767;84;21087;-74
2022/10/12 02:36:54;;;;;;;13.40;6.97;;;;;;;2.58;81.87;101667.63;1680169;84;20971;-75
2022/10/12 02:39:30;;;;;;;13.03;6.90;;;;;;;2.57;81.85;101671.04;1692735;84;21556;-75
2022/10/12 02:42:05;;;;;;;11.90;7.00;;;;;;;2.53;81.67;101665.38;1678626;84;21161;-75
2022/10/12 02:44:35;;;;;;;10.90;6.53;;;;;;;2.49;81.65;101671.34;1676475;84;21026;-75
2022/10/12 02:47:04;;;;;;;10.43;6.20;;;;;;;2.44;81.59;101668.27;1692462;84;21092;-75
2022/10/12 02:49:33;;;;;;;14.07;7.50;;;;;;;2.39;81.52;101668.61;1680398;84;21002;-75
2022/10/12 02:52:04;;;;;;;14.23;6.63;;;;;;;2.34;81.48;101671.53;1676194;84;21570;-75
2022/10/12 02:54:31;;;;;;;15.97;6.60;;;;;;;2.30;81.46;101674.03;1692722;84;21902;-75
2022/10/12 02:56:58;;;;;;;13.27;6.73;;;;;;;2.26;81.58;101673.55;1679948;84;21034;-75
2022/10/12 02:59:25;;;;;;;9.87;6.47;;;;;;;2.25;81.71;101676.56;1676233;84;21008;-75
2022/10/12 03:01:52;;;;;;;12.90;6.33;;;;;;;2.22;81.65;101675.22;1692425;84;21060;-75
2022/10/12 03:04:19;;;;;;;10.47;6.80;;;;;;;2.19;81.62;101671.25;1680395;84;21504;-75
2022/10/12 03:06:47;;;;;;;14.17;7.67;;;;;;;2.18;81.86;101666.94;1676211;84;21941;-75
2022/10/12 03:09:14;;;;;;;13.27;7.50;;;;;;;2.20;82.05;101674.31;1692310;84;21031;-75
2022/10/12 03:11:43;;;;;;;10.53;6.93;;;;;;;2.19;82.13;101673.84;1680171;84;21030;-75
2022/10/12 03:14:18;;;;;;;13.17;6.57;;;;;;;2.18;82.06;101672.11;1676194;84;21071;-75
2022/10/12 03:16:42;;;;;;;10.60;7.00;;;;;;;2.17;81.90;101676.84;1691834;84;21457;-75
2022/10/12 03:19:10;;;;;;;12.53;7.10;;;;;;;2.14;81.93;101674.20;1680203;84;21127;-75
2022/10/12 03:21:37;;;;;;;10.93;6.93;;;;;;;2.12;82.00;101679.34;1676068;84;20950;-75
2022/10/12 03:24:04;;;;;;;12.43;6.97;;;;;;;2.12;82.14;101675.88;1692548;84;21028;-75
2022/10/12 03:26:33;;;;;;;10.80;7.10;;;;;;;2.12;82.22;101676.75;1696828;84;21027;-75
2022/10/12 03:29:00;;;;;;;12.47;7.47;;;;;;;2.12;82.35;101675.88;1721430;83;21018;-75
2022/10/12 03:31:27;;;;;;;13.90;7.77;;;;;;;2.13;82.53;101674.60;1721146;83;21120;-75
2022/10/12 03:33:54;;;;;;;14.67;7.70;;;;;;;2.12;82.39;101678.47;1721384;83;21031;-75
2022/10/12 03:36:21;;;;;;;14.90;7.70;;;;;;;2.12;82.47;101675.88;1708348;84;21058;-76
2022/10/12 03:38:48;;;;;;;13.43;7.17;;;;;;;2.11;82.52;101678.90;1721315;83;21070;-75
2022/10/12 03:41:15;;;;;;;14.33;6.70;;;;;;;2.10;82.48;101673.26;1721229;83;21027;-75
2022/10/12 03:43:44;;;;;;;14.00;6.87;;;;;;;2.09;82.43;101677.13;1721270;83;21477;-75
2022/10/12 03:46:11;;;;;;;14.13;6.50;;;;;;;2.09;82.45;101681.01;1721186;83;21581;-75
2022/10/12 03:48:38;;;;;;;15.57;7.57;;;;;;;2.06;82.34;101679.23;1721235;83;20945;-75
2022/10/12 03:51:05;;;;;;;15.90;7.60;;;;;;;2.04;82.53;101677.46;1708321;84;21509;-75
2022/10/12 03:53:32;;;;;;;18.97;7.97;;;;;;;2.04;82.61;101678.75;1721279;83;21070;-75
2022/10/12 03:55:59;;;;;;;12.03;6.20;;;;;;;2.01;82.61;101680.86;1708501;84;21909;-75
2022/10/12 03:58:26;;;;;;;11.47;5.57;;;;;;;1.98;82.59;101681.67;1721295;83;21502;-75
2022/10/12 04:00:54;;;;;;;11.43;5.17;;;;;;;1.96;82.46;101678.60;1708467;84;21052;-75
2022/10/12 04:03:21;;;;;;;9.63;4.70;;;;;;;1.94;82.57;101679.88;1721408;83;21053;-75
2022/10/12 04:05:56;;;;;;;10.33;4.50;;;;;;;1.94;82.62;101675.11;1721263;83;21531;-75
2022/10/12 04:08:25;;;;;;;12.73;6.50;;;;;;;1.91;82.51;101678.94;1721073;83;21187;-75
2022/10/12 04:10:53;;;;;;;11.70;6.30;;;;;;;1.88;82.68;101678.45;1696480;83;21030;-75
2022/10/12 04:13:20;;;;;;;14.83;7.57;;;;;;;1.91;83.08;101678.54;1696515;83;21034;-76
2022/10/12 04:15:47;;;;;;;14.70;8.67;;;;;;;1.93;83.00;101680.70;1696748;83;21470;-75
2022/10/12 04:18:14;;;;;;;12.53;7.60;;;;;;;1.93;83.05;101678.13;1696553;83;21018;-75
2022/10/12 04:20:41;;;;;;;10.63;7.00;;;;;;;1.92;82.90;101680.70;1696891;83;21127;-76
2022/10/12 04:23:09;;;;;;;10.47;7.37;;;;;;;1.88;82.93;101681.03;1696628;83;21491;-75
2022/10/12 04:25:36;;;;;;;13.10;7.07;;;;;;;1.88;82.76;101686.20;1684593;83;21033;-76
2022/10/12 04:28:03;;;;;;;11.40;6.67;;;;;;;1.84;82.55;101687.01;1654376;86;21015;-76
2022/10/12 04:30:31;;;;;;;11.03;6.97;;;;;;;1.77;82.44;101684.73;1642223;86;21062;-75
2022/10/12 04:32:59;;;;;;;11.20;6.90;;;;;;;1.74;82.41;101688.52;1646352;86;22333;-75
2022/10/12 04:35:26;;;;;;;11.63;6.73;;;;;;;1.73;82.56;101689.38;1635842;87;21046;-76
2022/10/12 04:37:53;;;;;;;14.10;7.63;;;;;;;1.71;82.45;101692.34;1644143;86;21051;-76
2022/10/12 04:40:20;;;;;;;9.97;6.67;;;;;;;1.69;82.65;101685.00;1643181;87;21035;-76
2022/10/12 04:42:47;;;;;;;11.13;6.80;;;;;;;1.67;82.58;101685.39;1662562;86;21114;-76
2022/10/12 04:45:14;;;;;;;13.93;6.83;;;;;;;1.66;82.67;101681.47;1639072;86;21144;-76
2022/10/12 04:47:41;;;;;;;12.60;7.57;;;;;;;1.66;82.85;101688.79;1627372;86;20903;-75
2022/10/12 04:50:09;;;;;;;10.83;7.23;;;;;;;1.65;82.80;101692.23;1627587;86;21520;-76
2022/10/12 04:52:36;;;;;;;12.87;7.60;;;;;;;1.63;82.72;101695.62;1640616;86;21535;-75
2022/10/12 04:55:04;;;;;;;12.33;6.33;;;;;;;1.59;82.65;101693.41;1635555;87;21118;-75
2022/10/12 04:57:32;;;;;;;12.10;7.20;;;;;;;1.55;82.56;101691.19;1652548;85;21114;-75
2022/10/12 04:59:59;;;;;;;13.77;7.13;;;;;;;1.53;82.74;101686.82;1640080;86;21476;-75
2022/10/12 05:02:26;;;;;;;12.10;6.60;;;;;;;1.53;82.93;101685.11;1635663;87;21038;-75
2022/10/12 05:04:53;;;;;;;11.97;6.33;;;;;;;1.55;82.96;101690.28;1652265;85;21451;-76
2022/10/12 05:07:20;;;;;;;13.17;6.00;;;;;;;1.53;82.86;101689.41;1667936;84;21035;-76
2022/10/12 05:09:48;;;;;;;11.60;6.80;;;;;;;1.51;82.85;101686.78;1646930;86;22004;-76
2022/10/12 05:12:15;;;;;;;11.30;6.40;;;;;;;1.51;82.91;101683.33;1652911;86;21043;-76
2022/10/12 05:14:43;;;;;;;11.47;6.13;;;;;;;1.51;82.96;101691.95;1653024;86;21022;-76
2022/10/12 05:17:10;;;;;;;10.10;6.07;;;;;;;1.51;83.07;101693.23;1652984;86;21024;-76
2022/10/12 05:19:37;;;;;;;11.90;6.70;;;;;;;1.51;83.06;101695.82;1659996;85;21290;-75
2022/10/12 05:22:04;;;;;;;11.03;6.47;;;;;;;1.51;82.98;101694.95;1654073;85;21133;-75
2022/10/12 05:24:31;;;;;;;15.83;7.23;;;;;;;1.49;83.00;101700.08;1648252;85;20972;-75
2022/10/12 05:26:58;;;;;;;16.63;7.20;;;;;;;1.49;83.13;101697.49;1665930;84;21033;-75
2022/10/12 05:29:25;;;;;;;13.83;7.10;;;;;;;1.50;83.21;101700.55;1669381;85;21052;-76
2022/10/12 05:31:52;;;;;;;16.70;6.90;;;;;;;1.51;83.17;101698.41;1675936;84;21119;-75
2022/10/12 05:34:20;;;;;;;11.80;7.03;;;;;;;1.51;83.13;101703.58;1675972;85;21131;-75
2022/10/12 05:36:47;;;;;;;15.40;7.30;;;;;;;1.51;83.12;101703.58;1675828;84;21002;-75
2022/10/12 05:39:14;;;;;;;14.50;7.50;;;;;;;1.53;83.38;101697.16;1675693;85;21034;-75
2022/10/12 05:41:42;;;;;;;15.37;7.10;;;;;;;1.55;83.47;101696.35;1675917;84;21046;-74
2022/10/12 05:44:10;;;;;;;13.00;7.47;;;;;;;1.60;83.64;101698.14;1676143;85;21496;-74
2022/10/12 05:46:37;;;;;;;14.37;7.13;;;;;;;1.65;83.70;101704.28;1674261;84;21302;-73
2022/10/12 05:49:04;;;;;;;13.97;8.17;;;;;;;1.68;83.76;101701.33;1671987;84;21444;-73
2022/10/12 05:51:31;;;;;;;15.40;7.87;;;;;;;1.71;83.82;101696.22;1672999;84;21016;-73
2022/10/12 05:53:58;;;;;;;12.60;7.73;;;;;;;1.77;84.01;101698.95;1672069;84;21080;-73
2022/10/12 05:56:25;;;;;;;15.17;7.00;;;;;;;1.86;84.34;101698.65;1672067;84;21600;-73
2022/10/12 05:58:52;;;;;;;13.00;7.80;;;;;;;1.96;84.76;101696.70;1672058;84;21119;-75
2022/10/12 06:01:18;;;;;;;13.67;8.43;;;;;;;2.05;84.67;101696.00;1671990;84;21039;-73
2022/10/12 06:03:45;;;;;;;14.33;8.17;;;;;;;2.13;84.83;101699.17;1672137;84;21473;-74
2022/10/12 06:06:12;;;;;;;22.43;8.07;;;;;;;2.25;85.08;101699.84;1671871;84;21047;-73
2022/10/12 06:08:39;;;;;;;13.40;7.43;;;;;;;2.34;85.07;101701.29;1672306;84;21497;-74
2022/10/12 06:11:06;;;;;;;13.53;7.80;;;;;;;2.41;85.01;101702.25;1673408;84;21174;-73
2022/10/12 06:13:33;;;;;;;16.27;8.33;;;;;;;2.48;85.33;101704.11;1673595;84;21007;-74
2022/10/12 06:16:00;;;;;;;16.10;8.43;;;;;;;2.54;84.98;101705.94;1673333;84;21051;-73
2022/10/12 06:18:27;;;;;;;17.47;10.30;;;;;;;2.56;84.88;101705.55;1672849;84;20936;-74
2022/10/12 06:20:55;;;;;;;55.30;34.60;;;;;;;2.58;84.76;101707.75;1671895;84;21501;-74
2022/10/12 06:23:22;;;;;;;29.47;17.73;;;;;;;2.62;84.84;101704.34;1672790;84;21164;-74
2022/10/12 06:25:51;;;;;;;28.10;16.50;;;;;;;2.70;85.10;101710.52;1677177;84;21052;-75
2022/10/12 06:28:19;;;;;;;161.33;78.30;;;;;;;2.77;85.24;101710.19;1691246;83;21025;-73
2022/10/12 06:30:54;;;;;;;207.27;102.10;;;;;;;2.86;85.47;101714.23;1691205;83;20987;-74
2022/10/12 06:33:21;;;;;;;157.70;77.83;;;;;;;2.96;85.54;101713.94;1674827;84;21045;-73
2022/10/12 06:35:48;;;;;;;232.00;139.00;;;;;;;3.05;85.72;101714.97;1691652;83;21147;-72
2022/10/12 06:38:15;;;;;;;162.00;89.70;;;;;;;3.17;85.89;101725.06;1692209;83;21059;-73
2022/10/12 06:40:42;;;;;;;113.97;62.27;;;;;;;3.25;85.87;101726.91;1691710;83;21071;-73
2022/10/12 06:43:10;;;;;;;84.83;46.17;;;;;;;3.33;85.95;101734.80;1691589;83;21048;-73
2022/10/12 06:45:39;;;;;;;79.93;47.97;;;;;;;3.40;85.95;101731.85;1691724;83;21103;-73
2022/10/12 06:48:07;;;;;;;63.00;36.45;;;;;;;3.47;86.00;101737.15;1691695;83;21518;-73
2022/10/12 06:50:35;;;;;;;67.00;37.20;;;;;;;3.56;86.28;101732.51;1690492;83;21031;-72
2022/10/12 06:53:02;;;;;;;51.30;32.90;;;;;;;3.66;86.41;101733.08;1690750;83;22358;-73
2022/10/12 06:55:29;;;;;;;64.27;46.23;;;;;;;3.78;86.89;101733.22;1691589;83;21028;-73
2022/10/12 06:57:56;;;;;;;38.93;28.70;;;;;;;3.91;86.89;101737.28;1690555;83;21048;-72
2022/10/12 07:00:23;;;;;;;32.43;22.20;;;;;;;4.01;87.04;101732.18;1690672;83;21123;-73
2022/10/12 07:02:51;;;;;;;24.43;18.33;;;;;;;4.12;86.84;101728.84;1691560;83;21063;-73
2022/10/12 07:05:20;;;;;;;25.13;16.60;;;;;;;4.19;86.79;101724.17;1692970;83;21611;-75
2022/10/12 07:07:47;;;;;;;21.33;13.87;;;;;;;4.31;87.19;101726.02;1694760;83;21090;-75
2022/10/12 07:10:14;;;;;;;22.30;14.10;;;;;;;4.45;87.37;101727.88;1694789;83;21043;-75
2022/10/12 07:12:41;;;;;;;22.67;11.97;;;;;;;4.59;87.64;101723.25;1665015;85;21124;-74
2022/10/12 07:15:09;;;;;;;21.20;13.40;;;;;;;4.73;87.62;101724.66;1676955;84;21026;-75
2022/10/12 07:17:36;;;;;;;24.37;13.20;;;;;;;4.84;87.83;101724.32;1677270;84;21563;-76
2022/10/12 07:20:05;;;;;;;21.70;12.77;;;;;;;4.96;87.95;101724.44;1677588;84;21484;-75
2022/10/12 07:22:32;;;;;;;20.67;12.73;;;;;;;5.07;87.89;101723.18;1677285;84;21094;-75
2022/10/12 07:24:59;;;;;;;19.37;13.00;;;;;;;5.18;88.00;101723.25;1677421;84;21957;-74
2022/10/12 07:27:26;;;;;;;17.20;11.63;;;;;;;5.28;88.10;101722.46;1679113;84;20925;-75
2022/10/12 07:29:53;;;;;;;19.47;12.43;;;;;;;5.41;88.34;101721.67;1679846;84;21488;-75
2022/10/12 07:32:21;;;;;;;16.03;11.60;;;;;;;5.55;88.55;101724.34;1679948;84;21022;-75
2022/10/12 07:34:48;;;;;;;16.90;12.20;;;;;;;5.65;88.41;101722.20;1680025;84;21598;-75
2022/10/12 07:37:15;;;;;;;20.07;12.30;;;;;;;5.76;88.45;101720.55;1669021;85;22212;-74
2022/10/12 07:39:42;;;;;;;19.47;11.40;;;;;;;5.87;88.52;101725.77;1692460;84;21043;-74
2022/10/12 07:42:10;;;;;;;15.23;10.67;;;;;;;5.99;88.75;101719.79;1692617;84;21040;-75
2022/10/12 07:44:37;;;;;;;17.37;10.90;;;;;;;6.11;88.80;101719.80;1662895;85;21038;-74
2022/10/12 07:47:04;;;;;;;16.80;10.73;;;;;;;6.23;88.82;101718.52;1679878;84;21045;-74
2022/10/12 07:49:31;;;;;;;19.90;11.37;;;;;;;6.35;88.79;101718.13;1688750;84;21876;-75
2022/10/12 07:51:58;;;;;;;19.50;11.83;;;;;;;6.47;88.90;101719.00;1704398;83;21014;-75
2022/10/12 07:54:25;;;;;;;17.73;11.20;;;;;;;6.61;88.90;101722.91;1704586;83;21098;-74
2022/10/12 07:56:52;;;;;;;17.77;11.20;;;;;;;6.74;88.94;101715.98;1704459;84;21508;-75
2022/10/12 07:59:19;;;;;;;18.80;10.73;;;;;;;6.87;89.06;101715.11;1704626;83;20995;-74
2022/10/12 08:01:46;;;;;;;16.37;10.90;;;;;;;7.04;89.21;101716.80;1704412;83;21102;-74
2022/10/12 08:04:14;;;;;;;17.97;10.50;;;;;;;7.23;89.27;101726.34;1704587;83;21077;-75
2022/10/12 08:06:43;;;;;;;17.80;9.97;;;;;;;7.40;89.27;101725.42;1704342;83;21018;-74
2022/10/12 08:09:10;;;;;;;19.20;9.97;;;;;;;7.56;89.07;101716.69;1700648;84;21048;-77
2022/10/12 08:11:39;;;;;;;17.53;10.37;;;;;;;7.75;89.21;101722.27;1692271;84;21000;-74
2022/10/12 08:14:15;;;;;;;14.47;9.73;;;;;;;7.91;89.00;101716.55;1663061;84;21128;-75
2022/10/12 08:16:44;;;;;;;13.80;9.20;;;;;;;8.10;88.97;101713.84;1679806;84;21034;-75
2022/10/12 08:19:12;;;;;;;18.13;10.13;;;;;;;8.32;88.96;101714.58;1680128;84;21077;-77
2022/10/12 08:21:41;;;;;;;16.50;9.50;;;;;;;8.55;88.79;101717.05;1668934;85;20986;-74
2022/10/12 08:24:10;;;;;;;15.03;9.47;;;;;;;8.73;88.48;101713.00;1667413;85;21057;-74
2022/10/12 08:26:39;;;;;;;17.27;9.20;;;;;;;8.93;88.27;101712.81;1669969;85;21134;-75
2022/10/12 08:29:07;;;;;;;22.87;11.80;;;;;;;9.13;88.06;101712.17;1696508;83;21086;-75
2022/10/12 08:31:35;;;;;;;19.60;10.17;;;;;;;9.32;87.53;101712.85;1667003;85;21516;-75
2022/10/12 08:34:03;;;;;;;18.73;10.60;;;;;;;9.54;87.58;101715.23;1677198;84;21090;-75
2022/10/12 08:36:30;;;;;;;16.20;9.90;;;;;;;9.74;87.01;101714.98;1677176;84;21519;-75
2022/10/12 08:38:57;;;;;;;18.53;10.70;;;;;;;9.93;86.78;101711.25;1677120;84;21282;-75
2022/10/12 08:41:52;;;;;;;16.57;9.63;;;;;;;10.14;86.41;101717.06;1662061;84;21534;-76
2022/10/12 08:44:28;;;;;;;19.00;10.10;;;;;;;10.30;86.18;101709.44;1681948;84;21062;-74
2022/10/12 08:47:12;;;;;;;15.30;9.17;;;;;;;10.47;85.62;101706.14;1681749;84;20963;-74
2022/10/12 08:49:42;;;;;;;16.27;8.73;;;;;;;10.63;85.46;101705.42;1681866;84;21520;-75
2022/10/12 08:52:35;;;;;;;15.97;8.83;;;;;;;10.77;84.92;101706.50;1682082;84;21142;-74
2022/10/12 08:55:07;;;;;;;15.57;8.17;;;;;;;10.90;84.65;101709.80;1685912;83;21332;-75
2022/10/12 08:57:36;;;;;;;16.48;8.40;;;;;;;11.14;84.55;101706.73;1688632;83;21029;-77
2022/10/12 09:00:05;;;;;;;14.90;7.78;;;;;;;11.35;84.53;101700.20;1682081;84;21049;-75
2022/10/12 09:02:55;;;;;;;13.72;7.58;;;;;;;11.55;84.16;101699.80;1681819;84;21038;-74
2022/10/12 09:05:35;;;;;;;16.23;7.40;;;;;;;11.79;83.90;101695.80;1681625;84;21929;-76
2022/10/12 09:08:28;;;;;;;15.58;7.72;;;;;;;12.04;83.08;101697.47;1681974;84;21038;-80
2022/10/12 09:11:13;;;;;;;15.63;7.47;;;;;;;12.23;82.61;101700.55;1677719;84;21014;-72
2022/10/12 09:13:54;;;;;;;13.35;6.97;;;;;;;12.41;81.57;101706.27;1652346;85;21346;-76
2022/10/12 09:16:25;;;;;;;15.72;7.22;;;;;;;12.59;80.96;101707.61;1666885;84;21115;-73
2022/10/12 09:18:57;;;;;;;13.20;7.65;;;;;;;12.78;80.66;101703.62;1652398;85;21240;-75
2022/10/12 09:21:27;;;;;;;12.13;8.20;;;;;;;12.92;80.04;101701.95;1677829;84;21057;-74
2022/10/12 09:23:56;;;;;;;14.20;7.95;;;;;;;13.00;79.80;101706.56;1652209;85;21535;-75
2022/10/12 09:26:38;;;;;;;23.20;7.67;;;;;;;13.15;79.55;101706.59;1677143;84;21069;-76
2022/10/12 09:29:29;;;;;;;14.03;7.53;;;;;;;13.30;79.23;101698.33;1660094;85;21128;-75
2022/10/12 09:32:41;;;;;;;12.85;7.40;;;;;;;13.52;78.74;101700.34;1660140;85;21212;-75
2022/10/12 09:35:12;;;;;;;14.40;7.03;;;;;;;13.70;77.96;101689.28;1639601;86;21081;-76
2022/10/12 09:37:39;;;;;;;16.52;7.10;;;;;;;13.86;77.80;101692.33;1639733;86;21023;-74
2022/10/12 09:40:27;;;;;;;11.95;6.90;;;;;;;14.05;77.20;101688.22;1639519;86;21038;-75
2022/10/12 09:42:57;;;;;;;10.65;6.28;;;;;;;14.28;76.76;101692.77;1596677;88;21089;-75
2022/10/12 09:45:25;;;;;;;15.55;7.03;;;;;;;14.48;76.15;101688.62;1613611;87;21116;-74
2022/10/12 09:48:13;;;;;;;11.93;6.95;;;;;;;14.66;75.40;101689.80;1627614;85;21072;-86
2022/10/12 09:50:57;;;;;;;12.45;6.42;;;;;;;14.79;74.79;101692.44;1645170;85;21134;-74
2022/10/12 09:53:36;;;;;;;13.48;6.62;;;;;;;15.01;74.80;101691.70;1616970;87;21071;-74
2022/10/12 09:56:10;;;;;;;10.85;5.95;;;;;;;15.25;73.95;101689.52;1617451;87;21039;-74
2022/10/12 09:59:03;;;;;;;10.48;5.87;;;;;;;15.64;72.37;101692.08;1613540;87;21934;-75
2022/10/12 10:01:33;;;;;;;10.55;5.70;;;;;;;15.64;72.37;101692.08;1639329;86;21071;-77
2022/10/12 10:04:11;;;;;;;11.28;6.33;;;;;;;15.87;71.95;101690.77;1645122;85;21594;-74
2022/10/12 10:06:43;;;;;;;10.05;5.45;;;;;;;16.07;71.20;101687.34;1645218;85;21090;-75
2022/10/12 10:09:34;;;;;;;10.48;5.85;;;;;;;16.22;70.39;101685.89;1644967;85;21120;-75
2022/10/12 10:12:24;;;;;;;10.20;4.20;;;;;;;16.40;70.38;101683.80;1645106;85;21948;-75
2022/10/12 10:14:58;;;;;;;9.78;5.08;;;;;;;16.60;69.51;101686.97;1645068;85;20944;-82
2022/10/12 10:17:30;;;;;;;10.58;5.37;;;;;;;16.87;69.30;101679.66;1645159;85;21576;-75
2022/10/12 10:19:59;;;;;;;12.33;5.10;;;;;;;17.07;68.38;101668.22;1667672;84;21087;-75
2022/10/12 10:22:28;;;;;;;9.93;4.45;;;;;;;17.24;67.61;101674.56;1651786;85;21601;-75
2022/10/12 10:24:58;;;;;;;13.78;4.53;;;;;;;17.37;67.13;101670.41;1668944;84;21760;-75
2022/10/12 10:27:38;;;;;;;9.13;4.55;;;;;;;17.60;66.32;101667.58;1672688;84;21101;-75
2022/10/12 10:30:20;;;;;;;;;;;;;;;17.81;65.89;101662.23;1666268;85;21030;-75
2022/10/12 10:32:48;;;;;;;11.60;4.42;;;;;;;18.01;64.46;101666.58;1669967;85;20161;-75
2022/10/12 10:35:20;;;;;;;6.87;3.60;;;;;;;18.13;64.56;101662.02;1680203;85;21138;-75
2022/10/12 10:37:51;;;;;;;10.98;4.83;;;;;;;18.37;64.26;101654.63;1668940;86;21126;-75
2022/10/12 10:40:26;;;;;;;11.18;3.98;;;;;;;18.57;63.98;101651.44;1667654;86;21053;-74
2022/10/12 10:42:57;;;;;;;9.90;3.90;;;;;;;18.71;62.99;101652.95;1679924;85;21003;-75
2022/10/12 10:45:29;;;;;;;8.40;3.65;;;;;;;18.99;62.76;101644.91;1679840;85;21046;-75
2022/10/12 10:48:00;;;;;;;7.42;3.45;;;;;;;19.14;61.77;101648.92;1680190;85;21105;-75
2022/10/12 10:50:41;;;;;;;7.85;2.92;;;;;;;19.12;61.20;101644.19;1680062;85;21821;-74
2022/10/12 10:53:22;;;;;;;7.30;4.10;;;;;;;19.24;60.82;101645.33;1679725;85;21034;-76
2022/10/12 10:55:55;;;;;;;10.85;3.87;;;;;;;19.36;60.18;101648.64;1668813;86;21047;-75
2022/10/12 10:58:38;;;;;;;7.70;2.75;;;;;;;19.60;59.79;101642.94;1667019;85;21014;-74
2022/10/12 11:01:29;;;;;;;6.12;2.60;;;;;;;19.88;59.74;101637.45;1668991;85;21002;-74
2022/10/12 11:04:10;;;;;;;6.90;2.75;;;;;;;20.17;58.78;101637.95;1668442;85;21823;-75
2022/10/12 11:06:41;;;;;;;7.10;2.55;;;;;;;20.28;57.35;101633.34;1668740;86;21010;-82
2022/10/12 11:09:30;;;;;;;7.72;2.92;;;;;;;20.41;57.21;101627.69;1667676;86;20951;-75
2022/10/12 11:12:08;;;;;;;11.15;2.80;;;;;;;20.52;56.90;101623.06;1668999;86;21460;-74
2022/10/12 11:14:47;;;;;;;7.80;2.75;;;;;;;20.76;56.66;101619.45;1661831;86;21091;-74
2022/10/12 11:17:40;;;;;;;8.23;3.10;;;;;;;20.89;55.70;101616.87;1675975;84;21203;-74
2022/10/12 11:20:28;;;;;;;7.35;2.33;;;;;;;21.06;55.37;101622.50;1640061;86;21531;-74
2022/10/12 11:23:06;;;;;;;5.92;2.52;;;;;;;21.21;54.48;101612.23;1661872;86;20993;-85
2022/10/12 11:25:44;;;;;;;8.20;2.50;;;;;;;21.01;53.78;101613.95;1668783;85;20998;-74
2022/10/12 11:28:15;;;;;;;6.00;2.50;;;;;;;20.74;52.83;101617.34;1686047;84;21043;-74
2022/10/12 11:30:48;;;;;;;7.22;2.70;;;;;;;20.78;52.98;101615.34;1716637;83;21880;-74
2022/10/12 11:33:23;;;;;;;7.83;2.50;;;;;;;20.93;52.99;101610.42;1716455;83;21046;-74
2022/10/12 11:35:52;;;;;;;6.83;2.80;;;;;;;21.04;52.30;101609.77;1716480;83;21487;-79
2022/10/12 11:38:30;;;;;;;5.47;2.30;;;;;;;21.13;51.81;101607.36;1716724;83;21034;-74
2022/10/12 11:41:08;;;;;;;4.83;1.77;;;;;;;21.14;51.11;101602.44;1716061;83;21193;-74
2022/10/12 11:44:00;;;;;;;5.62;2.05;;;;;;;21.29;50.63;101599.27;1716550;83;21121;-74
2022/10/12 11:46:32;;;;;;;6.60;2.98;;;;;;;21.18;50.13;101602.24;1716439;83;20985;-74